sensor_id;sensor_type;location;lat;lon;timestamp;P1;durP1;ratioP1;P2;durP2;ratioP2
1416;SDS011;703;51.162;13.574;2022-07-29T00:00:39;11.30;;;3.30;;
1416;SDS011;703;51.162;13.574;2022-07-29T00:03:04;19.93;;;3.47;;
1416;SDS011;703;51.162;13.574;2022-07-29T00:05:30;10.47;;;3.27;;
1416;SDS011;703;51.162;13.574;2022-07-29T00:07:55;11.17;;;3.20;;
1416;SDS011;703;51.162;13.574;2022-07-29T00:10:21;11.70;;;3.50;;
1416;SDS011;703;51.162;13.574;2022-07-29T00:12:46;10.40;;;3.67;;
1416;SDS011;703;51.162;13.574;2022-07-29T00:15:12;12.20;;;4.60;;
1416;SDS011;703;51.162;13.574;2022-07-29T00:17:38;10.53;;;3.40;;
1416;SDS011;703;51.162;13.574;2022-07-29T00:20:04;14.03;;;4.13;;
1416;SDS011;703;51.162;13.574;2022-07-29T00:22:30;10.70;;;3.33;;
1416;SDS011;703;51.162;13.574;2022-07-29T00:24:55;9.73;;;3.37;;
1416;SDS011;703;51.162;13.574;2022-07-29T00:27:21;11.40;;;3.80;;
1416;SDS011;703;51.162;13.574;2022-07-29T00:29:46;12.03;;;3.77;;
1416;SDS011;703;51.162;13.574;2022-07-29T00:32:12;13.60;;;3.60;;
1416;SDS011;703;51.162;13.574;2022-07-29T00:34:38;11.73;;;3.83;;
1416;SDS011;703;51.162;13.574;2022-07-29T00:37:22;10.40;;;3.40;;
1416;SDS011;703;51.162;13.574;2022-07-29T00:39:48;11.33;;;2.97;;
1416;SDS011;703;51.162;13.574;2022-07-29T00:42:13;14.80;;;3.60;;
1416;SDS011;703;51.162;13.574;2022-07-29T00:44:40;10.43;;;3.50;;
1416;SDS011;703;51.162;13.574;2022-07-29T00:47:06;10.83;;;3.10;;
1416;SDS011;703;51.162;13.574;2022-07-29T00:49:33;10.40;;;3.70;;
1416;SDS011;703;51.162;13.574;2022-07-29T00:52:03;12.00;;;4.00;;
1416;SDS011;703;51.162;13.574;2022-07-29T00:54:29;12.73;;;4.27;;
1416;SDS011;703;51.162;13.574;2022-07-29T00:56:58;11.27;;;3.77;;
1416;SDS011;703;51.162;13.574;2022-07-29T00:59:24;10.50;;;3.83;;
1416;SDS011;703;51.162;13.574;2022-07-29T01:01:51;10.57;;;4.40;;
1416;SDS011;703;51.162;13.574;2022-07-29T01:04:18;13.93;;;4.67;;
1416;SDS011;703;51.162;13.574;2022-07-29T01:06:44;14.90;;;5.37;;
1416;SDS011;703;51.162;13.574;2022-07-29T01:09:10;12.97;;;3.80;;
1416;SDS011;703;51.162;13.574;2022-07-29T01:11:37;11.33;;;4.10;;
1416;SDS011;703;51.162;13.574;2022-07-29T01:14:05;10.93;;;4.37;;
1416;SDS011;703;51.162;13.574;2022-07-29T01:16:32;13.23;;;4.07;;
1416;SDS011;703;51.162;13.574;2022-07-29T01:19:16;15.60;;;4.37;;
1416;SDS011;703;51.162;13.574;2022-07-29T01:22:04;13.50;;;4.87;;
1416;SDS011;703;51.162;13.574;2022-07-29T01:30:14;13.73;;;4.90;;
1416;SDS011;703;51.162;13.574;2022-07-29T01:32:40;14.70;;;4.10;;
1416;SDS011;703;51.162;13.574;2022-07-29T01:35:15;13.37;;;3.73;;
1416;SDS011;703;51.162;13.574;2022-07-29T01:37:55;10.20;;;3.63;;
1416;SDS011;703;51.162;13.574;2022-07-29T01:40:28;10.37;;;3.13;;
1416;SDS011;703;51.162;13.574;2022-07-29T01:43:02;14.03;;;3.47;;
1416;SDS011;703;51.162;13.574;2022-07-29T01:45:37;11.50;;;4.17;;
1416;SDS011;703;51.162;13.574;2022-07-29T01:51:07;16.63;;;3.90;;
1416;SDS011;703;51.162;13.574;2022-07-29T01:56:23;10.70;;;3.90;;
1416;SDS011;703;51.162;13.574;2022-07-29T01:58:54;9.83;;;2.90;;
1416;SDS011;703;51.162;13.574;2022-07-29T02:01:21;11.83;;;3.87;;
1416;SDS011;703;51.162;13.574;2022-07-29T02:03:48;11.20;;;3.40;;
1416;SDS011;703;51.162;13.574;2022-07-29T02:06:16;13.60;;;3.50;;
1416;SDS011;703;51.162;13.574;2022-07-29T02:08:44;10.37;;;4.37;;
1416;SDS011;703;51.162;13.574;2022-07-29T02:11:11;11.30;;;4.30;;
1416;SDS011;703;51.162;13.574;2022-07-29T02:13:37;14.33;;;4.20;;
1416;SDS011;703;51.162;13.574;2022-07-29T02:16:04;12.50;;;4.77;;
1416;SDS011;703;51.162;13.574;2022-07-29T02:18:32;13.60;;;4.20;;
1416;SDS011;703;51.162;13.574;2022-07-29T02:21:00;10.20;;;3.77;;
1416;SDS011;703;51.162;13.574;2022-07-29T02:23:28;10.10;;;3.63;;
1416;SDS011;703;51.162;13.574;2022-07-29T02:25:57;13.70;;;4.33;;
1416;SDS011;703;51.162;13.574;2022-07-29T02:28:25;13.43;;;4.60;;
1416;SDS011;703;51.162;13.574;2022-07-29T02:30:53;11.87;;;3.47;;
1416;SDS011;703;51.162;13.574;2022-07-29T02:33:22;12.40;;;4.30;;
1416;SDS011;703;51.162;13.574;2022-07-29T02:35:49;11.80;;;4.30;;
1416;SDS011;703;51.162;13.574;2022-07-29T02:38:15;10.87;;;3.77;;
1416;SDS011;703;51.162;13.574;2022-07-29T02:41:03;10.10;;;3.90;;
1416;SDS011;703;51.162;13.574;2022-07-29T02:43:41;15.43;;;4.70;;
1416;SDS011;703;51.162;13.574;2022-07-29T02:46:11;16.97;;;3.93;;
1416;SDS011;703;51.162;13.574;2022-07-29T02:48:51;10.67;;;3.83;;
1416;SDS011;703;51.162;13.574;2022-07-29T02:51:25;15.67;;;4.37;;
1416;SDS011;703;51.162;13.574;2022-07-29T02:53:57;10.40;;;4.00;;
1416;SDS011;703;51.162;13.574;2022-07-29T02:56:26;12.10;;;4.30;;
1416;SDS011;703;51.162;13.574;2022-07-29T02:59:00;13.07;;;5.07;;
1416;SDS011;703;51.162;13.574;2022-07-29T03:01:30;11.60;;;3.97;;
1416;SDS011;703;51.162;13.574;2022-07-29T03:03:57;11.60;;;4.77;;
1416;SDS011;703;51.162;13.574;2022-07-29T03:06:27;12.27;;;4.40;;
1416;SDS011;703;51.162;13.574;2022-07-29T03:08:53;11.10;;;4.77;;
1416;SDS011;703;51.162;13.574;2022-07-29T03:11:20;11.17;;;4.40;;
1416;SDS011;703;51.162;13.574;2022-07-29T03:13:46;11.63;;;4.17;;
1416;SDS011;703;51.162;13.574;2022-07-29T03:16:12;14.97;;;5.30;;
1416;SDS011;703;51.162;13.574;2022-07-29T03:18:38;10.77;;;3.80;;
1416;SDS011;703;51.162;13.574;2022-07-29T03:21:04;11.70;;;4.00;;
1416;SDS011;703;51.162;13.574;2022-07-29T03:23:30;14.37;;;3.87;;
1416;SDS011;703;51.162;13.574;2022-07-29T03:25:56;12.70;;;4.80;;
1416;SDS011;703;51.162;13.574;2022-07-29T03:28:21;12.10;;;4.40;;
1416;SDS011;703;51.162;13.574;2022-07-29T03:30:47;12.20;;;4.17;;
1416;SDS011;703;51.162;13.574;2022-07-29T03:33:13;13.17;;;4.00;;
1416;SDS011;703;51.162;13.574;2022-07-29T03:35:39;15.53;;;5.50;;
1416;SDS011;703;51.162;13.574;2022-07-29T03:38:05;14.00;;;4.60;;
1416;SDS011;703;51.162;13.574;2022-07-29T03:40:34;15.50;;;4.57;;
1416;SDS011;703;51.162;13.574;2022-07-29T03:43:03;13.80;;;4.07;;
1416;SDS011;703;51.162;13.574;2022-07-29T03:45:31;11.77;;;4.73;;
1416;SDS011;703;51.162;13.574;2022-07-29T03:47:59;11.93;;;4.10;;
1416;SDS011;703;51.162;13.574;2022-07-29T03:50:29;11.00;;;4.63;;
1416;SDS011;703;51.162;13.574;2022-07-29T03:52:57;10.70;;;4.63;;
1416;SDS011;703;51.162;13.574;2022-07-29T03:55:23;10.80;;;5.40;;
1416;SDS011;703;51.162;13.574;2022-07-29T03:57:50;15.07;;;5.57;;
1416;SDS011;703;51.162;13.574;2022-07-29T04:00:16;14.43;;;4.63;;
1416;SDS011;703;51.162;13.574;2022-07-29T04:02:42;14.43;;;4.77;;
1416;SDS011;703;51.162;13.574;2022-07-29T04:05:13;12.13;;;4.40;;
1416;SDS011;703;51.162;13.574;2022-07-29T04:07:40;11.90;;;4.70;;
1416;SDS011;703;51.162;13.574;2022-07-29T04:10:08;11.77;;;4.73;;
1416;SDS011;703;51.162;13.574;2022-07-29T04:12:34;12.77;;;5.20;;
1416;SDS011;703;51.162;13.574;2022-07-29T04:14:59;13.50;;;5.93;;
1416;SDS011;703;51.162;13.574;2022-07-29T04:17:26;17.77;;;5.20;;
1416;SDS011;703;51.162;13.574;2022-07-29T04:19:51;13.50;;;4.87;;
1416;SDS011;703;51.162;13.574;2022-07-29T04:22:17;12.40;;;5.03;;
1416;SDS011;703;51.162;13.574;2022-07-29T04:24:42;12.23;;;4.80;;
1416;SDS011;703;51.162;13.574;2022-07-29T04:27:08;11.40;;;5.37;;
1416;SDS011;703;51.162;13.574;2022-07-29T04:29:33;14.97;;;5.13;;
1416;SDS011;703;51.162;13.574;2022-07-29T04:31:59;11.60;;;5.37;;
1416;SDS011;703;51.162;13.574;2022-07-29T04:34:24;14.93;;;5.23;;
1416;SDS011;703;51.162;13.574;2022-07-29T04:36:50;16.50;;;5.20;;
1416;SDS011;703;51.162;13.574;2022-07-29T04:39:15;12.60;;;4.70;;
1416;SDS011;703;51.162;13.574;2022-07-29T04:41:43;10.90;;;4.77;;
1416;SDS011;703;51.162;13.574;2022-07-29T04:44:08;19.43;;;4.83;;
1416;SDS011;703;51.162;13.574;2022-07-29T04:46:34;16.37;;;5.10;;
1416;SDS011;703;51.162;13.574;2022-07-29T04:49:00;12.30;;;4.40;;
1416;SDS011;703;51.162;13.574;2022-07-29T04:51:27;12.00;;;4.20;;
1416;SDS011;703;51.162;13.574;2022-07-29T04:53:52;14.83;;;4.43;;
1416;SDS011;703;51.162;13.574;2022-07-29T04:56:18;11.60;;;4.77;;
1416;SDS011;703;51.162;13.574;2022-07-29T04:58:43;11.83;;;4.60;;
1416;SDS011;703;51.162;13.574;2022-07-29T05:01:09;14.53;;;6.13;;
1416;SDS011;703;51.162;13.574;2022-07-29T05:03:34;14.27;;;5.00;;
1416;SDS011;703;51.162;13.574;2022-07-29T05:06:00;12.90;;;5.53;;
1416;SDS011;703;51.162;13.574;2022-07-29T05:08:25;12.93;;;4.53;;
1416;SDS011;703;51.162;13.574;2022-07-29T05:10:51;11.97;;;5.37;;
1416;SDS011;703;51.162;13.574;2022-07-29T05:13:16;15.03;;;6.07;;
1416;SDS011;703;51.162;13.574;2022-07-29T05:15:42;13.43;;;5.40;;
1416;SDS011;703;51.162;13.574;2022-07-29T05:18:07;11.87;;;5.30;;
1416;SDS011;703;51.162;13.574;2022-07-29T05:20:33;13.87;;;5.37;;
1416;SDS011;703;51.162;13.574;2022-07-29T05:22:59;12.30;;;5.27;;
1416;SDS011;703;51.162;13.574;2022-07-29T05:25:26;13.50;;;5.20;;
1416;SDS011;703;51.162;13.574;2022-07-29T05:27:52;14.17;;;5.30;;
1416;SDS011;703;51.162;13.574;2022-07-29T05:30:19;14.83;;;6.20;;
1416;SDS011;703;51.162;13.574;2022-07-29T05:32:45;17.63;;;7.07;;
1416;SDS011;703;51.162;13.574;2022-07-29T05:35:11;14.67;;;6.27;;
1416;SDS011;703;51.162;13.574;2022-07-29T05:37:36;12.03;;;6.43;;
1416;SDS011;703;51.162;13.574;2022-07-29T05:40:02;14.27;;;7.03;;
1416;SDS011;703;51.162;13.574;2022-07-29T05:42:28;18.43;;;11.33;;
1416;SDS011;703;51.162;13.574;2022-07-29T05:44:54;17.27;;;8.53;;
1416;SDS011;703;51.162;13.574;2022-07-29T05:47:20;18.20;;;12.80;;
1416;SDS011;703;51.162;13.574;2022-07-29T05:49:46;23.70;;;12.53;;
1416;SDS011;703;51.162;13.574;2022-07-29T05:52:12;21.83;;;13.00;;
1416;SDS011;703;51.162;13.574;2022-07-29T05:54:40;29.73;;;16.70;;
1416;SDS011;703;51.162;13.574;2022-07-29T05:57:06;21.70;;;14.60;;
1416;SDS011;703;51.162;13.574;2022-07-29T05:59:35;23.53;;;13.83;;
1416;SDS011;703;51.162;13.574;2022-07-29T06:02:01;23.90;;;13.17;;
1416;SDS011;703;51.162;13.574;2022-07-29T06:04:27;18.83;;;12.07;;
1416;SDS011;703;51.162;13.574;2022-07-29T06:06:52;22.13;;;11.97;;
1416;SDS011;703;51.162;13.574;2022-07-29T06:09:18;18.60;;;11.77;;
1416;SDS011;703;51.162;13.574;2022-07-29T06:11:43;19.93;;;11.30;;
1416;SDS011;703;51.162;13.574;2022-07-29T06:14:09;19.57;;;10.50;;
1416;SDS011;703;51.162;13.574;2022-07-29T06:16:34;17.60;;;10.90;;
1416;SDS011;703;51.162;13.574;2022-07-29T06:19:00;23.60;;;11.77;;
1416;SDS011;703;51.162;13.574;2022-07-29T06:21:25;21.40;;;12.13;;
1416;SDS011;703;51.162;13.574;2022-07-29T06:23:51;20.63;;;11.53;;
1416;SDS011;703;51.162;13.574;2022-07-29T06:26:16;20.37;;;10.77;;
1416;SDS011;703;51.162;13.574;2022-07-29T06:28:42;16.43;;;10.20;;
1416;SDS011;703;51.162;13.574;2022-07-29T06:31:07;17.47;;;10.30;;
1416;SDS011;703;51.162;13.574;2022-07-29T06:33:33;17.07;;;9.30;;
1416;SDS011;703;51.162;13.574;2022-07-29T06:35:59;19.20;;;9.40;;
1416;SDS011;703;51.162;13.574;2022-07-29T06:38:24;17.37;;;9.80;;
1416;SDS011;703;51.162;13.574;2022-07-29T06:40:50;17.50;;;9.53;;
1416;SDS011;703;51.162;13.574;2022-07-29T06:43:29;23.90;;;10.13;;
1416;SDS011;703;51.162;13.574;2022-07-29T06:46:02;19.90;;;10.07;;
1416;SDS011;703;51.162;13.574;2022-07-29T06:48:30;20.97;;;8.67;;
1416;SDS011;703;51.162;13.574;2022-07-29T06:50:56;16.97;;;8.37;;
1416;SDS011;703;51.162;13.574;2022-07-29T06:53:22;21.70;;;10.40;;
1416;SDS011;703;51.162;13.574;2022-07-29T06:55:48;19.40;;;10.53;;
1416;SDS011;703;51.162;13.574;2022-07-29T06:58:14;19.17;;;8.83;;
1416;SDS011;703;51.162;13.574;2022-07-29T07:00:41;18.03;;;9.00;;
1416;SDS011;703;51.162;13.574;2022-07-29T07:03:06;15.33;;;8.70;;
1416;SDS011;703;51.162;13.574;2022-07-29T07:05:32;15.77;;;9.47;;
1416;SDS011;703;51.162;13.574;2022-07-29T07:07:57;16.23;;;9.40;;
1416;SDS011;703;51.162;13.574;2022-07-29T07:10:23;17.30;;;8.87;;
1416;SDS011;703;51.162;13.574;2022-07-29T07:12:48;18.87;;;9.60;;
1416;SDS011;703;51.162;13.574;2022-07-29T07:15:14;20.10;;;9.43;;
1416;SDS011;703;51.162;13.574;2022-07-29T07:17:39;17.57;;;9.43;;
1416;SDS011;703;51.162;13.574;2022-07-29T07:20:05;16.40;;;9.93;;
1416;SDS011;703;51.162;13.574;2022-07-29T07:22:31;20.50;;;9.50;;
1416;SDS011;703;51.162;13.574;2022-07-29T07:24:57;18.93;;;8.70;;
1416;SDS011;703;51.162;13.574;2022-07-29T07:27:22;18.63;;;9.13;;
1416;SDS011;703;51.162;13.574;2022-07-29T07:29:48;18.57;;;7.93;;
1416;SDS011;703;51.162;13.574;2022-07-29T07:32:13;18.90;;;8.80;;
1416;SDS011;703;51.162;13.574;2022-07-29T07:34:41;17.73;;;9.20;;
1416;SDS011;703;51.162;13.574;2022-07-29T07:37:08;17.30;;;7.80;;
1416;SDS011;703;51.162;13.574;2022-07-29T07:39:33;17.67;;;8.87;;
1416;SDS011;703;51.162;13.574;2022-07-29T07:41:59;20.07;;;8.57;;
1416;SDS011;703;51.162;13.574;2022-07-29T07:44:25;20.93;;;9.07;;
1416;SDS011;703;51.162;13.574;2022-07-29T07:46:50;19.50;;;7.63;;
1416;SDS011;703;51.162;13.574;2022-07-29T07:49:17;15.10;;;7.80;;
1416;SDS011;703;51.162;13.574;2022-07-29T07:51:42;16.47;;;8.17;;
1416;SDS011;703;51.162;13.574;2022-07-29T07:54:08;17.90;;;8.47;;
1416;SDS011;703;51.162;13.574;2022-07-29T07:56:33;15.00;;;8.07;;
1416;SDS011;703;51.162;13.574;2022-07-29T07:58:59;15.77;;;7.53;;
1416;SDS011;703;51.162;13.574;2022-07-29T08:01:24;16.50;;;8.23;;
1416;SDS011;703;51.162;13.574;2022-07-29T08:03:50;17.70;;;9.20;;
1416;SDS011;703;51.162;13.574;2022-07-29T08:06:15;20.03;;;9.13;;
1416;SDS011;703;51.162;13.574;2022-07-29T08:08:41;21.97;;;9.73;;
1416;SDS011;703;51.162;13.574;2022-07-29T08:11:06;17.40;;;8.07;;
1416;SDS011;703;51.162;13.574;2022-07-29T08:13:32;17.37;;;9.07;;
1416;SDS011;703;51.162;13.574;2022-07-29T08:15:58;23.43;;;10.93;;
1416;SDS011;703;51.162;13.574;2022-07-29T08:18:26;19.33;;;10.93;;
1416;SDS011;703;51.162;13.574;2022-07-29T08:20:55;19.13;;;9.57;;
1416;SDS011;703;51.162;13.574;2022-07-29T08:23:21;17.53;;;10.00;;
1416;SDS011;703;51.162;13.574;2022-07-29T08:25:48;18.60;;;10.47;;
1416;SDS011;703;51.162;13.574;2022-07-29T08:28:14;22.37;;;10.83;;
1416;SDS011;703;51.162;13.574;2022-07-29T08:30:40;21.20;;;13.13;;
1416;SDS011;703;51.162;13.574;2022-07-29T08:33:05;25.53;;;14.00;;
1416;SDS011;703;51.162;13.574;2022-07-29T08:35:31;23.00;;;11.37;;
1416;SDS011;703;51.162;13.574;2022-07-29T08:37:56;26.07;;;12.70;;
1416;SDS011;703;51.162;13.574;2022-07-29T08:40:22;21.43;;;12.20;;
1416;SDS011;703;51.162;13.574;2022-07-29T08:42:49;26.27;;;13.30;;
1416;SDS011;703;51.162;13.574;2022-07-29T08:45:14;25.40;;;14.33;;
1416;SDS011;703;51.162;13.574;2022-07-29T08:47:40;33.17;;;16.70;;
1416;SDS011;703;51.162;13.574;2022-07-29T08:50:07;27.27;;;12.43;;
1416;SDS011;703;51.162;13.574;2022-07-29T08:52:35;19.53;;;11.27;;
1416;SDS011;703;51.162;13.574;2022-07-29T08:55:04;20.13;;;10.73;;
1416;SDS011;703;51.162;13.574;2022-07-29T08:57:31;20.00;;;10.70;;
1416;SDS011;703;51.162;13.574;2022-07-29T08:59:59;17.40;;;7.73;;
1416;SDS011;703;51.162;13.574;2022-07-29T09:02:27;17.00;;;7.97;;
1416;SDS011;703;51.162;13.574;2022-07-29T09:04:54;18.70;;;8.10;;
1416;SDS011;703;51.162;13.574;2022-07-29T09:07:22;27.50;;;7.30;;
1416;SDS011;703;51.162;13.574;2022-07-29T09:09:48;16.50;;;6.30;;
1416;SDS011;703;51.162;13.574;2022-07-29T09:12:13;16.47;;;6.10;;
1416;SDS011;703;51.162;13.574;2022-07-29T09:14:40;17.80;;;6.53;;
1416;SDS011;703;51.162;13.574;2022-07-29T09:17:06;22.30;;;9.27;;
1416;SDS011;703;51.162;13.574;2022-07-29T09:19:33;17.30;;;7.93;;
1416;SDS011;703;51.162;13.574;2022-07-29T09:22:05;17.47;;;8.33;;
1416;SDS011;703;51.162;13.574;2022-07-29T09:24:39;17.37;;;7.37;;
1416;SDS011;703;51.162;13.574;2022-07-29T09:29:37;16.10;;;8.00;;
1416;SDS011;703;51.162;13.574;2022-07-29T09:32:05;19.93;;;9.47;;
1416;SDS011;703;51.162;13.574;2022-07-29T09:34:34;18.43;;;8.43;;
1416;SDS011;703;51.162;13.574;2022-07-29T09:37:00;16.60;;;7.50;;
1416;SDS011;703;51.162;13.574;2022-07-29T09:39:30;16.60;;;8.03;;
1416;SDS011;703;51.162;13.574;2022-07-29T09:41:58;17.03;;;9.40;;
1416;SDS011;703;51.162;13.574;2022-07-29T09:44:25;20.17;;;11.17;;
1416;SDS011;703;51.162;13.574;2022-07-29T09:47:01;19.10;;;8.70;;
1416;SDS011;703;51.162;13.574;2022-07-29T09:52:18;20.53;;;10.30;;
1416;SDS011;703;51.162;13.574;2022-07-29T09:54:44;19.23;;;11.03;;
1416;SDS011;703;51.162;13.574;2022-07-29T09:57:21;19.40;;;9.97;;
1416;SDS011;703;51.162;13.574;2022-07-29T09:59:55;23.53;;;10.97;;
1416;SDS011;703;51.162;13.574;2022-07-29T10:02:32;20.93;;;9.17;;
1416;SDS011;703;51.162;13.574;2022-07-29T10:04:59;18.13;;;8.13;;
1416;SDS011;703;51.162;13.574;2022-07-29T10:07:26;20.47;;;8.23;;
1416;SDS011;703;51.162;13.574;2022-07-29T10:10:09;19.30;;;8.80;;
1416;SDS011;703;51.162;13.574;2022-07-29T10:12:40;18.17;;;6.77;;
1416;SDS011;703;51.162;13.574;2022-07-29T10:15:27;16.57;;;7.43;;
1416;SDS011;703;51.162;13.574;2022-07-29T10:17:57;16.90;;;7.40;;
1416;SDS011;703;51.162;13.574;2022-07-29T10:20:23;13.90;;;5.17;;
1416;SDS011;703;51.162;13.574;2022-07-29T10:22:50;19.00;;;7.47;;
1416;SDS011;703;51.162;13.574;2022-07-29T10:25:17;18.07;;;6.83;;
1416;SDS011;703;51.162;13.574;2022-07-29T10:27:43;14.53;;;4.70;;
1416;SDS011;703;51.162;13.574;2022-07-29T10:30:10;12.80;;;5.30;;
1416;SDS011;703;51.162;13.574;2022-07-29T10:35:40;17.37;;;4.63;;
1416;SDS011;703;51.162;13.574;2022-07-29T10:38:22;15.50;;;5.13;;
1416;SDS011;703;51.162;13.574;2022-07-29T10:40:57;15.13;;;6.70;;
1416;SDS011;703;51.162;13.574;2022-07-29T10:43:51;14.50;;;5.93;;
1416;SDS011;703;51.162;13.574;2022-07-29T10:46:24;13.83;;;4.20;;
1416;SDS011;703;51.162;13.574;2022-07-29T10:49:24;13.87;;;6.53;;
1416;SDS011;703;51.162;13.574;2022-07-29T10:57:20;25.60;;;8.10;;
1416;SDS011;703;51.162;13.574;2022-07-29T10:59:48;12.47;;;4.03;;
1416;SDS011;703;51.162;13.574;2022-07-29T11:05:12;13.33;;;4.80;;
1416;SDS011;703;51.162;13.574;2022-07-29T11:07:39;10.80;;;3.40;;
1416;SDS011;703;51.162;13.574;2022-07-29T11:10:25;10.33;;;4.00;;
1416;SDS011;703;51.162;13.574;2022-07-29T11:12:50;14.60;;;5.40;;
1416;SDS011;703;51.162;13.574;2022-07-29T11:15:17;13.90;;;5.23;;
1416;SDS011;703;51.162;13.574;2022-07-29T11:23:21;13.23;;;6.30;;
1416;SDS011;703;51.162;13.574;2022-07-29T11:28:59;14.63;;;5.97;;
1416;SDS011;703;51.162;13.574;2022-07-29T11:34:32;13.50;;;5.57;;
1416;SDS011;703;51.162;13.574;2022-07-29T11:39:32;14.13;;;5.93;;
1416;SDS011;703;51.162;13.574;2022-07-29T11:44:59;20.67;;;5.40;;
1416;SDS011;703;51.162;13.574;2022-07-29T11:47:26;12.10;;;5.30;;
1416;SDS011;703;51.162;13.574;2022-07-29T11:49:53;16.53;;;7.70;;
1416;SDS011;703;51.162;13.574;2022-07-29T11:52:21;22.30;;;8.40;;
1416;SDS011;703;51.162;13.574;2022-07-29T11:54:47;26.40;;;9.70;;
1416;SDS011;703;51.162;13.574;2022-07-29T11:57:17;18.93;;;8.53;;
1416;SDS011;703;51.162;13.574;2022-07-29T11:59:44;13.30;;;7.27;;
1416;SDS011;703;51.162;13.574;2022-07-29T12:02:11;17.63;;;7.73;;
1416;SDS011;703;51.162;13.574;2022-07-29T12:07:15;20.87;;;8.07;;
1416;SDS011;703;51.162;13.574;2022-07-29T12:09:48;18.07;;;8.10;;
1416;SDS011;703;51.162;13.574;2022-07-29T12:12:16;16.23;;;7.97;;
1416;SDS011;703;51.162;13.574;2022-07-29T12:14:41;16.77;;;7.10;;
1416;SDS011;703;51.162;13.574;2022-07-29T12:17:21;14.30;;;7.00;;
1416;SDS011;703;51.162;13.574;2022-07-29T12:20:02;14.80;;;7.93;;
1416;SDS011;703;51.162;13.574;2022-07-29T12:22:30;16.07;;;8.87;;
1416;SDS011;703;51.162;13.574;2022-07-29T12:25:05;17.67;;;7.47;;
1416;SDS011;703;51.162;13.574;2022-07-29T12:27:34;15.50;;;6.13;;
1416;SDS011;703;51.162;13.574;2022-07-29T12:30:01;14.80;;;6.43;;
1416;SDS011;703;51.162;13.574;2022-07-29T12:32:32;13.77;;;5.67;;
1416;SDS011;703;51.162;13.574;2022-07-29T12:35:01;15.30;;;5.27;;
1416;SDS011;703;51.162;13.574;2022-07-29T12:37:33;13.50;;;6.40;;
1416;SDS011;703;51.162;13.574;2022-07-29T12:40:00;17.57;;;6.10;;
1416;SDS011;703;51.162;13.574;2022-07-29T12:42:27;14.80;;;5.93;;
1416;SDS011;703;51.162;13.574;2022-07-29T12:44:52;13.10;;;5.90;;
1416;SDS011;703;51.162;13.574;2022-07-29T12:47:19;14.60;;;5.77;;
1416;SDS011;703;51.162;13.574;2022-07-29T12:49:45;12.83;;;5.40;;
1416;SDS011;703;51.162;13.574;2022-07-29T12:54:53;14.80;;;5.67;;
1416;SDS011;703;51.162;13.574;2022-07-29T12:57:19;17.10;;;7.50;;
1416;SDS011;703;51.162;13.574;2022-07-29T12:59:45;16.60;;;6.30;;
1416;SDS011;703;51.162;13.574;2022-07-29T13:02:23;13.17;;;6.17;;
1416;SDS011;703;51.162;13.574;2022-07-29T13:04:57;17.00;;;5.40;;
1416;SDS011;703;51.162;13.574;2022-07-29T13:07:27;14.50;;;6.50;;
1416;SDS011;703;51.162;13.574;2022-07-29T13:09:55;14.63;;;5.97;;
1416;SDS011;703;51.162;13.574;2022-07-29T13:12:37;14.10;;;6.70;;
1416;SDS011;703;51.162;13.574;2022-07-29T13:15:13;15.40;;;6.73;;
1416;SDS011;703;51.162;13.574;2022-07-29T13:17:41;15.90;;;7.70;;
1416;SDS011;703;51.162;13.574;2022-07-29T13:20:08;13.40;;;6.70;;
1416;SDS011;703;51.162;13.574;2022-07-29T13:22:37;14.60;;;6.70;;
1416;SDS011;703;51.162;13.574;2022-07-29T13:25:03;16.60;;;5.90;;
1416;SDS011;703;51.162;13.574;2022-07-29T13:27:32;14.63;;;6.60;;
1416;SDS011;703;51.162;13.574;2022-07-29T13:29:59;19.10;;;7.17;;
1416;SDS011;703;51.162;13.574;2022-07-29T13:32:28;16.17;;;5.80;;
1416;SDS011;703;51.162;13.574;2022-07-29T13:34:58;15.30;;;6.40;;
1416;SDS011;703;51.162;13.574;2022-07-29T13:37:25;14.40;;;6.93;;
1416;SDS011;703;51.162;13.574;2022-07-29T13:39:54;13.70;;;6.93;;
1416;SDS011;703;51.162;13.574;2022-07-29T13:42:20;13.80;;;6.43;;
1416;SDS011;703;51.162;13.574;2022-07-29T13:44:47;14.80;;;7.03;;
1416;SDS011;703;51.162;13.574;2022-07-29T13:47:15;14.47;;;6.60;;
1416;SDS011;703;51.162;13.574;2022-07-29T13:49:41;14.40;;;7.87;;
1416;SDS011;703;51.162;13.574;2022-07-29T13:52:06;15.00;;;8.30;;
1416;SDS011;703;51.162;13.574;2022-07-29T13:54:32;16.97;;;7.93;;
1416;SDS011;703;51.162;13.574;2022-07-29T13:56:58;14.83;;;8.90;;
1416;SDS011;703;51.162;13.574;2022-07-29T13:59:23;14.47;;;8.77;;
1416;SDS011;703;51.162;13.574;2022-07-29T14:01:49;15.87;;;8.87;;
1416;SDS011;703;51.162;13.574;2022-07-29T14:04:14;15.83;;;8.60;;
1416;SDS011;703;51.162;13.574;2022-07-29T14:06:40;12.53;;;7.03;;
1416;SDS011;703;51.162;13.574;2022-07-29T14:09:06;14.50;;;8.77;;
1416;SDS011;703;51.162;13.574;2022-07-29T14:11:33;15.10;;;7.57;;
1416;SDS011;703;51.162;13.574;2022-07-29T14:13:59;17.60;;;9.17;;
1416;SDS011;703;51.162;13.574;2022-07-29T14:16:24;17.43;;;9.33;;
1416;SDS011;703;51.162;13.574;2022-07-29T14:18:50;19.20;;;9.23;;
1416;SDS011;703;51.162;13.574;2022-07-29T14:21:15;14.10;;;9.23;;
1416;SDS011;703;51.162;13.574;2022-07-29T14:23:41;16.97;;;9.83;;
1416;SDS011;703;51.162;13.574;2022-07-29T14:26:07;14.63;;;9.03;;
1416;SDS011;703;51.162;13.574;2022-07-29T14:28:32;14.83;;;8.90;;
1416;SDS011;703;51.162;13.574;2022-07-29T14:30:58;16.40;;;8.80;;
1416;SDS011;703;51.162;13.574;2022-07-29T14:33:23;16.73;;;8.37;;
1416;SDS011;703;51.162;13.574;2022-07-29T14:35:49;17.10;;;6.80;;
1416;SDS011;703;51.162;13.574;2022-07-29T14:38:14;13.43;;;7.10;;
1416;SDS011;703;51.162;13.574;2022-07-29T14:40:40;14.83;;;7.80;;
1416;SDS011;703;51.162;13.574;2022-07-29T14:43:05;17.70;;;8.10;;
1416;SDS011;703;51.162;13.574;2022-07-29T14:45:31;12.73;;;6.30;;
1416;SDS011;703;51.162;13.574;2022-07-29T14:47:56;14.87;;;6.97;;
1416;SDS011;703;51.162;13.574;2022-07-29T14:50:22;29.00;;;6.70;;
1416;SDS011;703;51.162;13.574;2022-07-29T14:52:47;12.80;;;6.30;;
1416;SDS011;703;51.162;13.574;2022-07-29T14:55:13;16.97;;;6.53;;
1416;SDS011;703;51.162;13.574;2022-07-29T14:57:39;13.00;;;6.40;;
1416;SDS011;703;51.162;13.574;2022-07-29T15:00:05;13.87;;;6.50;;
1416;SDS011;703;51.162;13.574;2022-07-29T15:02:32;11.40;;;5.73;;
1416;SDS011;703;51.162;13.574;2022-07-29T15:04:58;17.20;;;6.53;;
1416;SDS011;703;51.162;13.574;2022-07-29T15:07:23;13.67;;;5.70;;
1416;SDS011;703;51.162;13.574;2022-07-29T15:09:49;12.50;;;5.80;;
1416;SDS011;703;51.162;13.574;2022-07-29T15:12:14;14.80;;;6.77;;
1416;SDS011;703;51.162;13.574;2022-07-29T15:14:40;14.43;;;6.20;;
1416;SDS011;703;51.162;13.574;2022-07-29T15:17:06;12.50;;;6.00;;
1416;SDS011;703;51.162;13.574;2022-07-29T15:19:31;11.93;;;5.90;;
1416;SDS011;703;51.162;13.574;2022-07-29T15:21:57;16.47;;;6.97;;
1416;SDS011;703;51.162;13.574;2022-07-29T15:24:23;16.20;;;7.87;;
1416;SDS011;703;51.162;13.574;2022-07-29T15:26:48;13.33;;;7.20;;
1416;SDS011;703;51.162;13.574;2022-07-29T15:29:14;15.57;;;8.27;;
1416;SDS011;703;51.162;13.574;2022-07-29T15:31:39;17.93;;;9.80;;
1416;SDS011;703;51.162;13.574;2022-07-29T15:34:05;16.20;;;9.17;;
1416;SDS011;703;51.162;13.574;2022-07-29T15:36:31;16.80;;;9.87;;
1416;SDS011;703;51.162;13.574;2022-07-29T15:38:56;15.33;;;10.43;;
1416;SDS011;703;51.162;13.574;2022-07-29T15:41:22;17.40;;;10.27;;
1416;SDS011;703;51.162;13.574;2022-07-29T15:43:48;21.73;;;12.77;;
1416;SDS011;703;51.162;13.574;2022-07-29T15:46:14;21.27;;;13.67;;
1416;SDS011;703;51.162;13.574;2022-07-29T15:48:59;19.97;;;11.60;;
1416;SDS011;703;51.162;13.574;2022-07-29T15:51:26;21.87;;;15.07;;
1416;SDS011;703;51.162;13.574;2022-07-29T15:53:51;19.50;;;12.67;;